Time;durP1;ratioP1;P1;durP2;ratioP2;P2;SDS_P1;SDS_P2;PMS_P1;PMS_P2;Temp;Humidity;BMP_temperature;BMP_pressure;BME280_temperature;BME280_humidity;BME280_pressure;Samples;Min_cycle;Max_cycle;Signal;HPM_P1;HPM_P2
2022/11/15 00:01:36;;;;;;;;;;;;;;;;;;5038538;28;20339;-24
2022/11/15 00:04:03;;;;;;;;;;;;;;;;;;5037404;28;20303;-23
2022/11/15 00:06:30;;;;;;;;;;;;;;;;;;5037380;28;19913;-24
2022/11/15 00:08:57;;;;;;;;;;;;;;;;;;5037998;28;19936;-23
2022/11/15 00:11:24;;;;;;;;;;;;;;;;;;5038765;28;19969;-24
2022/11/15 00:13:51;;;;;;;;;;;;;;;;;;5016397;28;20009;-23
2022/11/15 00:16:18;;;;;;;;;;;;;;;;;;5017909;28;20301;-23
2022/11/15 00:18:45;;;;;;;;;;;;;;;;;;5017730;28;19909;-24
2022/11/15 00:21:12;;;;;;;;;;;;;;;;;;5016763;28;19948;-23
2022/11/15 00:23:39;;;;;;;;;;;;;;;;;;5017007;28;19913;-23
2022/11/15 00:26:05;;;;;;;;;;;;;;;;;;5017151;28;19921;-24
2022/11/15 00:28:33;;;;;;;;;;;;;;;;;;5018019;28;19910;-23
2022/11/15 00:31:00;;;;;;;;;;;;;;;;;;5018526;28;20343;-23
2022/11/15 00:33:28;;;;;;;;;;;;;;;;;;5016440;28;19913;-23
2022/11/15 00:35:56;;;;;;;;;;;;;;;;;;5017722;28;19913;-23
2022/11/15 00:38:23;;;;;;;;;;;;;;;;;;5017416;28;19956;-23
2022/11/15 00:40:50;;;;;;;;;;;;;;;;;;5016572;28;19913;-23
2022/11/15 00:43:17;;;;;;;;;;;;;;;;;;5018171;28;19910;-23
2022/11/15 00:45:44;;;;;;;;;;;;;;;;;;5017871;28;19913;-24
2022/11/15 00:48:11;;;;;;;;;;;;;;;;;;5017992;28;20204;-24
2022/11/15 00:50:38;;;;;;;;;;;;;;;;;;5016837;28;19925;-24
2022/11/15 00:53:05;;;;;;;;;;;;;;;;;;5016617;28;19914;-23
2022/11/15 00:55:32;;;;;;;;;;;;;;;;;;5017448;28;19929;-24
2022/11/15 00:58:01;;;;;;;;;;;;;;;;;;5017685;28;19929;-23
2022/11/15 01:00:27;;;;;;;;;;;;;;;;;;5017217;28;19913;-23
2022/11/15 01:02:54;;;;;;;;;;;;;;;;;;5016585;28;19913;-24
2022/11/15 01:05:23;;;;;;;;;;;;;;;;;;5017764;28;19961;-23
2022/11/15 01:07:51;;;;;;;;;;;;;;;;;;5017327;28;20270;-23
2022/11/15 01:10:19;;;;;;;;;;;;;;;;;;5017968;28;19917;-23
2022/11/15 01:12:45;;;;;;;;;;;;;;;;;;5018213;28;19917;-23
2022/11/15 01:15:13;;;;;;;;;;;;;;;;;;5037236;28;19943;-23
2022/11/15 01:17:40;;;;;;;;;;;;;;;;;;5022661;28;19914;-23
2022/11/15 01:20:07;;;;;;;;;;;;;;;;;;5040592;28;19909;-23
2022/11/15 01:22:34;;;;;;;;;;;;;;;;;;5040728;28;19913;-23
2022/11/15 01:25:02;;;;;;;;;;;;;;;;;;5040237;28;19909;-23
2022/11/15 01:27:30;;;;;;;;;;;;;;;;;;5040097;28;19913;-23
2022/11/15 01:29:58;;;;;;;;;;;;;;;;;;5040191;28;19921;-23
2022/11/15 01:32:25;;;;;;;;;;;;;;;;;;5022545;28;19938;-24
2022/11/15 01:34:52;;;;;;;;;;;;;;;;;;5023021;28;19992;-23
2022/11/15 01:37:19;;;;;;;;;;;;;;;;;;5040525;28;19924;-23
2022/11/15 01:39:47;;;;;;;;;;;;;;;;;;5022667;28;19914;-23
2022/11/15 01:42:14;;;;;;;;;;;;;;;;;;5040498;28;19909;-23
2022/11/15 01:44:42;;;;;;;;;;;;;;;;;;5023299;28;19955;-23
2022/11/15 01:47:09;;;;;;;;;;;;;;;;;;5040548;28;20380;-23
2022/11/15 01:49:36;;;;;;;;;;;;;;;;;;5039943;28;19967;-23
2022/11/15 01:52:03;;;;;;;;;;;;;;;;;;5040355;28;19913;-23
2022/11/15 01:54:30;;;;;;;;;;;;;;;;;;5040502;28;19909;-23
2022/11/15 01:56:57;;;;;;;;;;;;;;;;;;5022736;28;19913;-23
2022/11/15 01:59:25;;;;;;;;;;;;;;;;;;5039676;28;19923;-23
2022/11/15 02:01:53;;;;;;;;;;;;;;;;;;5039954;28;20293;-23
2022/11/15 02:04:20;;;;;;;;;;;;;;;;;;5040007;28;19913;-23
2022/11/15 02:06:46;;;;;;;;;;;;;;;;;;5039971;28;20256;-23
2022/11/15 02:09:14;;;;;;;;;;;;;;;;;;5040040;28;19913;-23
2022/11/15 02:11:41;;;;;;;;;;;;;;;;;;5021900;28;19920;-23
2022/11/15 02:14:09;;;;;;;;;;;;;;;;;;5039721;28;19936;-23
2022/11/15 02:16:36;;;;;;;;;;;;;;;;;;5040114;28;19913;-24
2022/11/15 02:19:03;;;;;;;;;;;;;;;;;;5021954;28;19913;-23
2022/11/15 02:21:33;;;;;;;;;;;;;;;;;;5022084;28;19913;-23
2022/11/15 02:23:59;;;;;;;;;;;;;;;;;;5022269;28;19917;-23
2022/11/15 02:26:27;;;;;;;;;;;;;;;;;;5022141;28;19921;-23
2022/11/15 02:28:54;;;;;;;;;;;;;;;;;;5038134;28;19913;-23
2022/11/15 02:31:22;;;;;;;;;;;;;;;;;;5021939;28;19917;-23
2022/11/15 02:33:49;;;;;;;;;;;;;;;;;;5039161;28;19924;-23
2022/11/15 02:36:16;;;;;;;;;;;;;;;;;;5039042;28;19940;-23
2022/11/15 02:38:42;;;;;;;;;;;;;;;;;;5039476;28;19913;-23
2022/11/15 02:41:10;;;;;;;;;;;;;;;;;;5022107;28;19913;-23
2022/11/15 02:47:12;;;;;;;;;;;;;;;;;;5039562;28;19921;-23
2022/11/15 02:49:18;;;;;;;;;;;;;;;;;;5038685;28;19913;-23
2022/11/15 02:51:45;;;;;;;;;;;;;;;;;;5038547;28;19969;-23
2022/11/15 02:54:12;;;;;;;;;;;;;;;;;;5038599;28;19917;-23
2022/11/15 02:56:39;;;;;;;;;;;;;;;;;;5038503;28;19917;-24
2022/11/15 02:59:06;;;;;;;;;;;;;;;;;;5038401;28;20296;-23
2022/11/15 03:01:34;;;;;;;;;;;;;;;;;;5021533;28;19912;-23
2022/11/15 03:04:01;;;;;;;;;;;;;;;;;;5038122;28;19996;-23
2022/11/15 03:06:28;;;;;;;;;;;;;;;;;;5021048;28;19971;-23
2022/11/15 03:08:56;;;;;;;;;;;;;;;;;;5038574;28;20007;-23
2022/11/15 03:11:22;;;;;;;;;;;;;;;;;;5039247;28;19920;-23
2022/11/15 03:13:49;;;;;;;;;;;;;;;;;;5038513;28;19928;-23
2022/11/15 03:16:16;;;;;;;;;;;;;;;;;;5038998;28;19921;-23
2022/11/15 03:18:44;;;;;;;;;;;;;;;;;;5039197;28;19914;-23
2022/11/15 03:21:11;;;;;;;;;;;;;;;;;;5021293;28;20014;-23
2022/11/15 03:23:38;;;;;;;;;;;;;;;;;;5038695;28;19913;-24
2022/11/15 03:26:05;;;;;;;;;;;;;;;;;;5021232;28;19971;-23
2022/11/15 03:28:32;;;;;;;;;;;;;;;;;;5038483;28;20356;-23
2022/11/15 03:30:59;;;;;;;;;;;;;;;;;;5038028;28;20348;-23
2022/11/15 03:33:26;;;;;;;;;;;;;;;;;;5021194;28;19917;-23
2022/11/15 03:35:53;;;;;;;;;;;;;;;;;;5038428;28;19924;-23
2022/11/15 03:38:21;;;;;;;;;;;;;;;;;;5037933;28;19913;-24
2022/11/15 03:40:48;;;;;;;;;;;;;;;;;;5038118;28;20229;-23
2022/11/15 03:43:15;;;;;;;;;;;;;;;;;;5037922;28;20259;-24
2022/11/15 03:45:42;;;;;;;;;;;;;;;;;;5038093;28;19992;-24
2022/11/15 03:48:08;;;;;;;;;;;;;;;;;;5020629;28;19913;-23
2022/11/15 03:50:39;;;;;;;;;;;;;;;;;;5037875;28;19949;-23
2022/11/15 03:53:06;;;;;;;;;;;;;;;;;;5037687;28;19917;-23
2022/11/15 03:55:33;;;;;;;;;;;;;;;;;;5020753;28;20367;-24
2022/11/15 03:57:59;;;;;;;;;;;;;;;;;;5037886;28;20397;-23
2022/11/15 04:00:27;;;;;;;;;;;;;;;;;;5021312;28;20344;-23
2022/11/15 04:02:54;;;;;;;;;;;;;;;;;;5037847;28;19917;-26
2022/11/15 04:05:21;;;;;;;;;;;;;;;;;;5037881;28;19913;-24
2022/11/15 04:07:49;;;;;;;;;;;;;;;;;;5020587;28;19913;-24
2022/11/15 04:10:16;;;;;;;;;;;;;;;;;;5038170;28;19986;-24
2022/11/15 04:12:46;;;;;;;;;;;;;;;;;;5037250;28;19928;-23
2022/11/15 04:15:12;;;;;;;;;;;;;;;;;;5038359;28;19917;-23
2022/11/15 04:17:43;;;;;;;;;;;;;;;;;;5038184;28;19909;-24
2022/11/15 04:25:59;;;;;;;;;;;;;;;;;;4996154;28;19914;-23
2022/11/15 04:28:27;;;;;;;;;;;;;;;;;;4980892;28;19909;-23
2022/11/15 04:33:46;;;;;;;;;;;;;;;;;;5038364;28;19970;-24
2022/11/15 04:39:00;;;;;;;;;;;;;;;;;;5038406;28;19967;-23
2022/11/15 04:41:28;;;;;;;;;;;;;;;;;;5019978;28;19920;-24
2022/11/15 04:43:58;;;;;;;;;;;;;;;;;;5038417;28;19913;-24
2022/11/15 04:46:25;;;;;;;;;;;;;;;;;;5037448;28;19932;-23
2022/11/15 04:48:53;;;;;;;;;;;;;;;;;;5037524;28;20340;-24
2022/11/15 04:51:21;;;;;;;;;;;;;;;;;;5021243;28;19940;-23
2022/11/15 04:56:35;;;;;;;;;;;;;;;;;;5041224;28;19963;-24
2022/11/15 04:59:03;;;;;;;;;;;;;;;;;;5042705;28;19923;-23
2022/11/15 05:01:31;;;;;;;;;;;;;;;;;;5042478;28;19928;-27
2022/11/15 05:06:44;;;;;;;;;;;;;;;;;;5041284;28;19916;-24
2022/11/15 05:09:17;;;;;;;;;;;;;;;;;;5041862;28;19924;-24
2022/11/15 05:11:46;;;;;;;;;;;;;;;;;;5040742;28;19913;-24
2022/11/15 05:14:15;;;;;;;;;;;;;;;;;;5039465;28;19932;-24
2022/11/15 05:19:33;;;;;;;;;;;;;;;;;;5040319;28;20006;-24
2022/11/15 05:22:01;;;;;;;;;;;;;;;;;;5040339;28;19917;-24
2022/11/15 05:24:30;;;;;;;;;;;;;;;;;;5040364;28;19975;-24
2022/11/15 05:43:54;;;;;;;;;;;;;;;;;;5135964;23;20063;-24
2022/11/15 05:46:20;;;;;;;;;;;;;;;;;;5017301;28;19937;-24
2022/11/15 05:48:46;;;;;;;;;;;;;;;;;;5016964;28;20395;-23
2022/11/15 05:51:12;;;;;;;;;;;;;;;;;;5016956;28;19925;-23
2022/11/15 05:53:38;;;;;;;;;;;;;;;;;;5016870;28;20359;-23
2022/11/15 05:56:04;;;;;;;;;;;;;;;;;;5017663;28;19924;-23
2022/11/15 05:58:30;;;;;;;;;;;;;;;;;;5016911;28;19909;-23
2022/11/15 06:00:56;;;;;;;;;;;;;;;;;;5017146;28;19917;-23
2022/11/15 06:03:22;;;;;;;;;;;;;;;;;;5016563;28;19917;-25
2022/11/15 06:05:48;;;;;;;;;;;;;;;;;;5015559;28;19914;-24
2022/11/15 06:08:14;;;;;;;;;;;;;;;;;;5016552;28;19924;-24
2022/11/15 06:10:40;;;;;;;;;;;;;;;;;;5016787;28;20348;-25
2022/11/15 06:13:06;;;;;;;;;;;;;;;;;;5016314;28;19926;-24
2022/11/15 06:15:32;;;;;;;;;;;;;;;;;;5016512;28;19924;-24
2022/11/15 06:17:58;;;;;;;;;;;;;;;;;;5016672;28;19910;-24
2022/11/15 06:20:24;;;;;;;;;;;;;;;;;;5016433;28;19941;-24
2022/11/15 06:22:50;;;;;;;;;;;;;;;;;;5015336;28;19921;-24
2022/11/15 06:25:16;;;;;;;;;;;;;;;;;;5016264;28;19921;-24
2022/11/15 06:27:42;;;;;;;;;;;;;;;;;;5016177;28;20007;-24
2022/11/15 06:30:08;;;;;;;;;;;;;;;;;;5016156;28;19913;-24
2022/11/15 06:32:34;;;;;;;;;;;;;;;;;;5015062;28;19913;-24
2022/11/15 06:35:00;;;;;;;;;;;;;;;;;;5016808;28;19917;-24
2022/11/15 06:37:26;;;;;;;;;;;;;;;;;;5016082;28;19913;-24
2022/11/15 06:39:52;;;;;;;;;;;;;;;;;;5014822;28;19920;-24
2022/11/15 06:42:18;;;;;;;;;;;;;;;;;;5015518;28;19909;-24
2022/11/15 06:44:44;;;;;;;;;;;;;;;;;;5015971;28;19917;-24
2022/11/15 06:47:10;;;;;;;;;;;;;;;;;;5015818;28;19914;-24
2022/11/15 06:49:36;;;;;;;;;;;;;;;;;;5015968;28;19917;-24
2022/11/15 06:52:02;;;;;;;;;;;;;;;;;;5015270;28;19913;-24
2022/11/15 06:54:28;;;;;;;;;;;;;;;;;;5015597;28;20344;-23
2022/11/15 06:56:54;;;;;;;;;;;;;;;;;;5015368;28;20310;-24
2022/11/15 06:59:20;;;;;;;;;;;;;;;;;;5015451;28;20004;-23
2022/11/15 07:01:46;;;;;;;;;;;;;;;;;;5015051;28;20217;-24
2022/11/15 07:04:12;;;;;;;;;;;;;;;;;;5015297;28;19913;-23
2022/11/15 07:06:38;;;;;;;;;;;;;;;;;;5015281;28;19916;-23
2022/11/15 07:09:04;;;;;;;;;;;;;;;;;;4997985;28;19914;-23
2022/11/15 07:11:30;;;;;;;;;;;;;;;;;;5015213;28;20353;-24
2022/11/15 07:13:56;;;;;;;;;;;;;;;;;;5014016;28;20379;-23
2022/11/15 07:16:22;;;;;;;;;;;;;;;;;;5014761;28;19914;-24
2022/11/15 07:18:48;;;;;;;;;;;;;;;;;;5014663;28;19917;-23
2022/11/15 07:21:14;;;;;;;;;;;;;;;;;;5014436;28;20252;-23
2022/11/15 07:23:40;;;;;;;;;;;;;;;;;;5014359;28;19933;-24
2022/11/15 07:26:06;;;;;;;;;;;;;;;;;;5014327;28;19913;-23
2022/11/15 07:28:32;;;;;;;;;;;;;;;;;;5014633;28;19925;-25
2022/11/15 07:30:58;;;;;;;;;;;;;;;;;;5014628;28;20333;-26
2022/11/15 07:33:24;;;;;;;;;;;;;;;;;;5014235;28;20300;-25
2022/11/15 07:35:50;;;;;;;;;;;;;;;;;;5014283;28;19964;-22
2022/11/15 07:38:19;;;;;;;;;;;;;;;;;;5014609;28;19917;-24
2022/11/15 07:40:45;;;;;;;;;;;;;;;;;;4997205;28;19988;-24
2022/11/15 07:43:11;;;;;;;;;;;;;;;;;;5014698;28;20371;-24
2022/11/15 07:45:37;;;;;;;;;;;;;;;;;;5014989;28;19910;-23
2022/11/15 07:48:03;;;;;;;;;;;;;;;;;;5014899;28;20402;-24
2022/11/15 07:50:30;;;;;;;;;;;;;;;;;;5013682;28;19926;-24
2022/11/15 07:52:56;;;;;;;;;;;;;;;;;;5014723;28;20364;-25
2022/11/15 07:55:22;;;;;;;;;;;;;;;;;;5015165;28;19988;-25
2022/11/15 07:57:48;;;;;;;;;;;;;;;;;;5015103;28;19953;-25
2022/11/15 08:00:15;;;;;;;;;;;;;;;;;;5014580;28;19913;-24
2022/11/15 08:02:41;;;;;;;;;;;;;;;;;;5014220;28;20012;-24
2022/11/15 08:05:07;;;;;;;;;;;;;;;;;;5014429;28;20056;-24
2022/11/15 08:07:33;;;;;;;;;;;;;;;;;;5014557;28;19913;-24
2022/11/15 08:10:00;;;;;;;;;;;;;;;;;;5014556;28;19933;-24
2022/11/15 08:12:26;;;;;;;;;;;;;;;;;;5014002;28;19933;-24
2022/11/15 08:14:52;;;;;;;;;;;;;;;;;;5013991;28;20276;-25
2022/11/15 08:17:18;;;;;;;;;;;;;;;;;;5014165;28;20000;-24
2022/11/15 08:19:44;;;;;;;;;;;;;;;;;;5014530;28;20322;-25
2022/11/15 08:22:10;;;;;;;;;;;;;;;;;;5014255;28;19952;-24
2022/11/15 08:24:36;;;;;;;;;;;;;;;;;;5014457;28;19935;-24
2022/11/15 08:27:02;;;;;;;;;;;;;;;;;;5018560;28;20310;-25
2022/11/15 08:29:28;;;;;;;;;;;;;;;;;;5018802;28;20248;-25
2022/11/15 08:31:54;;;;;;;;;;;;;;;;;;5018392;28;20399;-25
2022/11/15 08:34:20;;;;;;;;;;;;;;;;;;5018434;28;19917;-25
2022/11/15 08:36:46;;;;;;;;;;;;;;;;;;5018324;28;19972;-25
2022/11/15 08:39:13;;;;;;;;;;;;;;;;;;5018278;28;20084;-25
2022/11/15 08:41:39;;;;;;;;;;;;;;;;;;5018030;28;19910;-25
2022/11/15 08:44:05;;;;;;;;;;;;;;;;;;5017930;28;19922;-24
2022/11/15 08:46:31;;;;;;;;;;;;;;;;;;5018262;28;19940;-25
2022/11/15 08:48:57;;;;;;;;;;;;;;;;;;5018003;28;19917;-25
2022/11/15 08:51:23;;;;;;;;;;;;;;;;;;5018192;28;20398;-24
2022/11/15 08:53:49;;;;;;;;;;;;;;;;;;5017753;28;19967;-24
2022/11/15 08:56:15;;;;;;;;;;;;;;;;;;5016490;28;19924;-24
2022/11/15 08:58:42;;;;;;;;;;;;;;;;;;5016507;28;19913;-24
2022/11/15 09:01:08;;;;;;;;;;;;;;;;;;5017424;28;19909;-24
2022/11/15 09:03:34;;;;;;;;;;;;;;;;;;5017544;28;20009;-24
2022/11/15 09:06:00;;;;;;;;;;;;;;;;;;5017581;28;19940;-24
2022/11/15 09:08:26;;;;;;;;;;;;;;;;;;5018261;28;19913;-23
2022/11/15 09:10:52;;;;;;;;;;;;;;;;;;5017531;28;19997;-24
2022/11/15 09:13:18;;;;;;;;;;;;;;;;;;5017138;28;20001;-24
2022/11/15 09:15:44;;;;;;;;;;;;;;;;;;5017324;28;19914;-24
2022/11/15 09:18:10;;;;;;;;;;;;;;;;;;5017721;28;19909;-24
2022/11/15 09:20:36;;;;;;;;;;;;;;;;;;5017839;28;19964;-24
2022/11/15 09:23:02;;;;;;;;;;;;;;;;;;5017415;28;20256;-24
2022/11/15 09:25:28;;;;;;;;;;;;;;;;;;5017353;28;20008;-24
2022/11/15 09:27:54;;;;;;;;;;;;;;;;;;5017492;28;19957;-24
2022/11/15 09:30:20;;;;;;;;;;;;;;;;;;5017261;28;19946;-24
2022/11/15 09:32:46;;;;;;;;;;;;;;;;;;5016988;28;20201;-24
2022/11/15 09:35:12;;;;;;;;;;;;;;;;;;5016903;28;19914;-24
2022/11/15 09:37:38;;;;;;;;;;;;;;;;;;5016233;28;20298;-24
2022/11/15 09:40:04;;;;;;;;;;;;;;;;;;5017067;28;19913;-24
2022/11/15 09:42:30;;;;;;;;;;;;;;;;;;5016650;28;19917;-23
2022/11/15 09:44:57;;;;;;;;;;;;;;;;;;5016211;28;19918;-23
2022/11/15 09:47:25;;;;;;;;;;;;;;;;;;5015569;28;21354;-23
2022/11/15 09:49:51;;;;;;;;;;;;;;;;;;5016203;28;19913;-23
2022/11/15 09:52:17;;;;;;;;;;;;;;;;;;5016149;28;19948;-23
2022/11/15 09:54:43;;;;;;;;;;;;;;;;;;5016368;28;19979;-24
2022/11/15 09:57:09;;;;;;;;;;;;;;;;;;5016155;28;20340;-24
2022/11/15 09:59:35;;;;;;;;;;;;;;;;;;5016122;28;19913;-32
2022/11/15 10:02:01;;;;;;;;;;;;;;;;;;5016152;28;19913;-24
2022/11/15 10:04:27;;;;;;;;;;;;;;;;;;5016106;28;20255;-24
2022/11/15 10:06:53;;;;;;;;;;;;;;;;;;5016081;28;19917;-24
2022/11/15 10:09:19;;;;;;;;;;;;;;;;;;5016085;28;19914;-24
2022/11/15 10:11:45;;;;;;;;;;;;;;;;;;5016181;28;19924;-24
2022/11/15 10:14:12;;;;;;;;;;;;;;;;;;5016008;28;19925;-23
2022/11/15 10:16:38;;;;;;;;;;;;;;;;;;5015961;28;19914;-23
2022/11/15 10:19:04;;;;;;;;;;;;;;;;;;5015682;28;19952;-23
2022/11/15 10:21:30;;;;;;;;;;;;;;;;;;5015661;28;19940;-23
2022/11/15 10:23:56;;;;;;;;;;;;;;;;;;5016272;28;20235;-23
2022/11/15 10:26:22;;;;;;;;;;;;;;;;;;5015156;28;19939;-23
2022/11/15 10:28:48;;;;;;;;;;;;;;;;;;5016134;28;19921;-23
2022/11/15 10:31:14;;;;;;;;;;;;;;;;;;5015990;28;19913;-25
2022/11/15 10:33:40;;;;;;;;;;;;;;;;;;5016166;28;19957;-25
2022/11/15 10:36:06;;;;;;;;;;;;;;;;;;5016361;28;19929;-23
2022/11/15 10:38:32;;;;;;;;;;;;;;;;;;5014586;28;19913;-23
2022/11/15 10:40:58;;;;;;;;;;;;;;;;;;5016190;28;19967;-23
2022/11/15 10:43:26;;;;;;;;;;;;;;;;;;5015764;28;20353;-23
2022/11/15 10:45:52;;;;;;;;;;;;;;;;;;5016880;28;19917;-24
2022/11/15 10:48:18;;;;;;;;;;;;;;;;;;5015798;28;19909;-24
2022/11/15 10:50:44;;;;;;;;;;;;;;;;;;5015686;28;19996;-23
2022/11/15 10:53:10;;;;;;;;;;;;;;;;;;5015664;28;20340;-24
2022/11/15 10:55:36;;;;;;;;;;;;;;;;;;5014607;28;19917;-23
2022/11/15 10:58:02;;;;;;;;;;;;;;;;;;5015669;28;19909;-23
2022/11/15 11:00:28;;;;;;;;;;;;;;;;;;5015500;28;19913;-24
2022/11/15 11:02:54;;;;;;;;;;;;;;;;;;5015419;28;20352;-25
2022/11/15 11:05:20;;;;;;;;;;;;;;;;;;5015490;28;19924;-24
2022/11/15 11:07:46;;;;;;;;;;;;;;;;;;5014184;28;20008;-24
2022/11/15 11:10:20;;;;;;;;;;;;;;;;;;5092265;27;19939;-28
2022/11/15 11:12:46;;;;;;;;;;;;;;;;;;5091515;28;20367;-25
2022/11/15 11:15:12;;;;;;;;;;;;;;;;;;5091627;28;19916;-27
2022/11/15 11:17:39;;;;;;;;;;;;;;;;;;5091664;28;19912;-23
2022/11/15 11:20:05;;;;;;;;;;;;;;;;;;5090713;28;19972;-29
2022/11/15 11:22:31;;;;;;;;;;;;;;;;;;5091453;28;19912;-25
2022/11/15 11:24:57;;;;;;;;;;;;;;;;;;5091690;28;19913;-25
2022/11/15 11:27:23;;;;;;;;;;;;;;;;;;5091642;28;20262;-31
2022/11/15 11:29:49;;;;;;;;;;;;;;;;;;5090695;28;19916;-27
2022/11/15 11:32:15;;;;;;;;;;;;;;;;;;5091622;28;19915;-27
2022/11/15 11:34:41;;;;;;;;;;;;;;;;;;5091603;28;20063;-25
2022/11/15 11:37:08;;;;;;;;;;;;;;;;;;5091859;28;19972;-27
2022/11/15 11:39:34;;;;;;;;;;;;;;;;;;5091758;28;19912;-32
2022/11/15 11:42:00;;;;;;;;;;;;;;;;;;5091291;28;19912;-27
2022/11/15 11:44:26;;;;;;;;;;;;;;;;;;5091304;28;19908;-30
2022/11/15 11:46:52;;;;;;;;;;;;;;;;;;5091284;28;19916;-30
2022/11/15 11:49:18;;;;;;;;;;;;;;;;;;5091006;28;19938;-28
2022/11/15 11:51:44;;;;;;;;;;;;;;;;;;5090969;28;19912;-29
2022/11/15 11:54:10;;;;;;;;;;;;;;;;;;5090772;28;20042;-26
2022/11/15 11:56:36;;;;;;;;;;;;;;;;;;5091052;28;20349;-27
2022/11/15 11:59:02;;;;;;;;;;;;;;;;;;5090487;28;20335;-24
2022/11/15 12:01:29;;;;;;;;;;;;;;;;;;5090364;28;19913;-26
2022/11/15 12:03:54;;;;;;;;;;;;;;;;;;5090524;28;19912;-26
2022/11/15 12:06:21;;;;;;;;;;;;;;;;;;5090474;28;19916;-25
2022/11/15 12:08:47;;;;;;;;;;;;;;;;;;5097806;28;19924;-26
2022/11/15 12:11:13;;;;;;;;;;;;;;;;;;5111011;28;19919;-28
2022/11/15 12:13:39;;;;;;;;;;;;;;;;;;5110599;28;20018;-25
2022/11/15 12:16:05;;;;;;;;;;;;;;;;;;5110543;28;19997;-28
2022/11/15 12:18:31;;;;;;;;;;;;;;;;;;5110627;28;20250;-25
2022/11/15 12:20:57;;;;;;;;;;;;;;;;;;5100717;28;19995;-26
2022/11/15 12:23:23;;;;;;;;;;;;;;;;;;5096642;28;19969;-26
2022/11/15 12:25:49;;;;;;;;;;;;;;;;;;5096899;28;20382;-27
2022/11/15 12:28:15;;;;;;;;;;;;;;;;;;5095912;28;20023;-23
2022/11/15 12:30:41;;;;;;;;;;;;;;;;;;5096940;28;19941;-25
2022/11/15 12:33:07;;;;;;;;;;;;;;;;;;5097162;28;19916;-27
2022/11/15 12:35:34;;;;;;;;;;;;;;;;;;5097066;28;19915;-29
2022/11/15 12:38:00;;;;;;;;;;;;;;;;;;5097736;28;19923;-29
2022/11/15 12:40:26;;;;;;;;;;;;;;;;;;5097035;28;19912;-29
2022/11/15 12:42:52;;;;;;;;;;;;;;;;;;5097216;28;19942;-23
2022/11/15 12:45:18;;;;;;;;;;;;;;;;;;5097060;28;19912;-26
2022/11/15 12:47:44;;;;;;;;;;;;;;;;;;5095975;28;19924;-28
2022/11/15 12:50:10;;;;;;;;;;;;;;;;;;5096916;28;19917;-27
2022/11/15 12:52:36;;;;;;;;;;;;;;;;;;5096677;28;20231;-23
2022/11/15 12:55:02;;;;;;;;;;;;;;;;;;5096793;28;19915;-25
2022/11/15 12:57:28;;;;;;;;;;;;;;;;;;5096597;28;20347;-30
2022/11/15 13:00:04;;;;;;;;;;;;;;;;;;5096775;28;19912;-26
2022/11/15 13:02:30;;;;;;;;;;;;;;;;;;5096572;28;19954;-26
2022/11/15 13:04:56;;;;;;;;;;;;;;;;;;5096922;28;19908;-24
2022/11/15 13:07:21;;;;;;;;;;;;;;;;;;5096838;28;20427;-27
2022/11/15 13:09:48;;;;;;;;;;;;;;;;;;5096364;28;19927;-26
2022/11/15 13:12:14;;;;;;;;;;;;;;;;;;5096849;28;20253;-27
2022/11/15 13:14:40;;;;;;;;;;;;;;;;;;5096691;28;20018;-24
2022/11/15 13:17:06;;;;;;;;;;;;;;;;;;5096610;28;20002;-28
2022/11/15 13:19:32;;;;;;;;;;;;;;;;;;5095458;28;19987;-33
2022/11/15 13:24:43;;;;;;;;;;;;;;;;;;5096657;28;19923;-27
2022/11/15 13:27:09;;;;;;;;;;;;;;;;;;5096767;28;19912;-27
2022/11/15 13:29:35;;;;;;;;;;;;;;;;;;5096264;28;20269;-30
2022/11/15 13:32:01;;;;;;;;;;;;;;;;;;5095152;28;19908;-26
2022/11/15 13:34:27;;;;;;;;;;;;;;;;;;5096121;28;19912;-27
2022/11/15 13:36:53;;;;;;;;;;;;;;;;;;5096330;28;20011;-28
2022/11/15 13:39:19;;;;;;;;;;;;;;;;;;5096375;28;19937;-25
2022/11/15 13:41:45;;;;;;;;;;;;;;;;;;5096106;28;19985;-26
2022/11/15 13:44:11;;;;;;;;;;;;;;;;;;5094961;28;20342;-32
2022/11/15 13:46:37;;;;;;;;;;;;;;;;;;5095900;28;19938;-24
2022/11/15 13:49:03;;;;;;;;;;;;;;;;;;5095625;28;19916;-28
2022/11/15 13:51:29;;;;;;;;;;;;;;;;;;5094553;28;19927;-28
2022/11/15 13:53:55;;;;;;;;;;;;;;;;;;5095994;28;20250;-27
2022/11/15 13:56:21;;;;;;;;;;;;;;;;;;5095675;28;19912;-31
2022/11/15 13:58:48;;;;;;;;;;;;;;;;;;5095824;28;19919;-28
2022/11/15 14:01:14;;;;;;;;;;;;;;;;;;5095379;28;19912;-28
2022/11/15 14:03:41;;;;;;;;;;;;;;;;;;5095216;28;19919;-27
2022/11/15 14:06:07;;;;;;;;;;;;;;;;;;5095429;28;19920;-32
2022/11/15 14:08:33;;;;;;;;;;;;;;;;;;5095292;28;19920;-29
2022/11/15 14:10:59;;;;;;;;;;;;;;;;;;5095730;28;19957;-30
2022/11/15 14:13:25;;;;;;;;;;;;;;;;;;5095051;28;19952;-24
2022/11/15 14:15:51;;;;;;;;;;;;;;;;;;5095091;28;19919;-26
2022/11/15 14:18:17;;;;;;;;;;;;;;;;;;5095085;28;19912;-26
2022/11/15 14:20:43;;;;;;;;;;;;;;;;;;5095152;28;19931;-30
2022/11/15 14:23:09;;;;;;;;;;;;;;;;;;5094873;28;19952;-26
2022/11/15 14:25:35;;;;;;;;;;;;;;;;;;5095064;28;19930;-31
2022/11/15 14:28:01;;;;;;;;;;;;;;;;;;5094869;28;19918;-27
2022/11/15 14:30:27;;;;;;;;;;;;;;;;;;5093681;28;19912;-25
2022/11/15 14:32:53;;;;;;;;;;;;;;;;;;5094817;28;19916;-30
2022/11/15 14:35:19;;;;;;;;;;;;;;;;;;5095020;28;19943;-25
2022/11/15 14:37:45;;;;;;;;;;;;;;;;;;5095164;28;19962;-26
2022/11/15 14:40:11;;;;;;;;;;;;;;;;;;5095039;28;19912;-26
2022/11/15 14:42:37;;;;;;;;;;;;;;;;;;5094763;28;19908;-24
2022/11/15 14:45:03;;;;;;;;;;;;;;;;;;5094621;28;20345;-27
2022/11/15 14:47:29;;;;;;;;;;;;;;;;;;5095127;28;19973;-27
2022/11/15 14:49:55;;;;;;;;;;;;;;;;;;5094891;28;20293;-28
2022/11/15 14:52:21;;;;;;;;;;;;;;;;;;5094764;28;19941;-27
2022/11/15 14:54:47;;;;;;;;;;;;;;;;;;5094910;28;19973;-28
2022/11/15 14:57:13;;;;;;;;;;;;;;;;;;5094781;28;19982;-27
2022/11/15 14:59:39;;;;;;;;;;;;;;;;;;5094056;28;20093;-24
2022/11/15 15:02:05;;;;;;;;;;;;;;;;;;5094981;28;19912;-29
2022/11/15 15:04:31;;;;;;;;;;;;;;;;;;5095646;28;19929;-25
2022/11/15 15:06:57;;;;;;;;;;;;;;;;;;5094773;28;20304;-30
2022/11/15 15:09:23;;;;;;;;;;;;;;;;;;5094452;28;19921;-28
2022/11/15 15:11:49;;;;;;;;;;;;;;;;;;5094731;28;19908;-26
2022/11/15 15:14:15;;;;;;;;;;;;;;;;;;5094762;28;19931;-27
2022/11/15 15:16:41;;;;;;;;;;;;;;;;;;5093595;28;19912;-28
2022/11/15 15:19:07;;;;;;;;;;;;;;;;;;5095616;28;19923;-24
2022/11/15 15:21:33;;;;;;;;;;;;;;;;;;5095089;28;19935;-24
2022/11/15 15:23:59;;;;;;;;;;;;;;;;;;5094783;28;19920;-24
2022/11/15 15:26:25;;;;;;;;;;;;;;;;;;5094535;28;19912;-25
2022/11/15 15:28:51;;;;;;;;;;;;;;;;;;5094772;28;19916;-24
2022/11/15 15:31:17;;;;;;;;;;;;;;;;;;5094701;28;20254;-25
2022/11/15 15:33:44;;;;;;;;;;;;;;;;;;5094655;28;20002;-25
2022/11/15 15:36:10;;;;;;;;;;;;;;;;;;5094464;28;19995;-25
2022/11/15 15:38:36;;;;;;;;;;;;;;;;;;5094616;28;19932;-27
2022/11/15 15:41:02;;;;;;;;;;;;;;;;;;5094562;28;20248;-28
2022/11/15 15:43:28;;;;;;;;;;;;;;;;;;5094480;28;19912;-26
2022/11/15 15:45:54;;;;;;;;;;;;;;;;;;5094210;28;20390;-28
2022/11/15 15:48:20;;;;;;;;;;;;;;;;;;5094203;28;19961;-30
2022/11/15 15:50:47;;;;;;;;;;;;;;;;;;5094211;28;19999;-31
2022/11/15 15:53:13;;;;;;;;;;;;;;;;;;5094323;28;19919;-31
2022/11/15 15:55:39;;;;;;;;;;;;;;;;;;5095150;28;19922;-28
2022/11/15 15:58:05;;;;;;;;;;;;;;;;;;5097616;28;20252;-25
2022/11/15 16:00:33;;;;;;;;;;;;;;;;;;5097568;28;20315;-28
2022/11/15 16:02:59;;;;;;;;;;;;;;;;;;5097567;28;19912;-25
2022/11/15 16:05:25;;;;;;;;;;;;;;;;;;5096739;28;20000;-25
2022/11/15 16:07:51;;;;;;;;;;;;;;;;;;5097620;28;19970;-32
2022/11/15 16:10:17;;;;;;;;;;;;;;;;;;5097347;28;19926;-28
2022/11/15 16:12:43;;;;;;;;;;;;;;;;;;5097408;28;19919;-24
2022/11/15 16:15:09;;;;;;;;;;;;;;;;;;5097195;28;19916;-29
2022/11/15 16:17:35;;;;;;;;;;;;;;;;;;5095779;28;19978;-24
2022/11/15 16:20:01;;;;;;;;;;;;;;;;;;5097053;28;19912;-27
2022/11/15 16:22:28;;;;;;;;;;;;;;;;;;5096768;28;20389;-26
2022/11/15 16:24:54;;;;;;;;;;;;;;;;;;5096939;28;20007;-26
2022/11/15 16:27:20;;;;;;;;;;;;;;;;;;5096633;28;19956;-24
2022/11/15 16:29:46;;;;;;;;;;;;;;;;;;5096626;28;19968;-27
2022/11/15 16:32:12;;;;;;;;;;;;;;;;;;5096803;28;19999;-24
2022/11/15 16:34:38;;;;;;;;;;;;;;;;;;5096591;28;20015;-29
2022/11/15 16:37:04;;;;;;;;;;;;;;;;;;5096671;28;19994;-27
2022/11/15 16:39:31;;;;;;;;;;;;;;;;;;5096848;28;19951;-28
2022/11/15 16:41:57;;;;;;;;;;;;;;;;;;5096466;28;19916;-27
2022/11/15 16:44:23;;;;;;;;;;;;;;;;;;5095606;28;20319;-29
2022/11/15 16:46:50;;;;;;;;;;;;;;;;;;5096952;28;19915;-25
2022/11/15 16:49:17;;;;;;;;;;;;;;;;;;5096533;28;20342;-25
2022/11/15 16:51:44;;;;;;;;;;;;;;;;;;5096793;28;20238;-29
2022/11/15 16:54:10;;;;;;;;;;;;;;;;;;5096942;28;20254;-32
2022/11/15 16:56:36;;;;;;;;;;;;;;;;;;5097028;28;19912;-29
2022/11/15 16:59:02;;;;;;;;;;;;;;;;;;5096695;28;19977;-27
2022/11/15 17:01:28;;;;;;;;;;;;;;;;;;5096767;28;20299;-24
2022/11/15 17:03:54;;;;;;;;;;;;;;;;;;5096459;28;19973;-25
2022/11/15 17:06:20;;;;;;;;;;;;;;;;;;5096736;28;19912;-31
2022/11/15 17:08:46;;;;;;;;;;;;;;;;;;5095201;28;20254;-27
2022/11/15 17:11:12;;;;;;;;;;;;;;;;;;5096793;28;19923;-28
2022/11/15 17:13:38;;;;;;;;;;;;;;;;;;5096391;28;19919;-27
2022/11/15 17:16:04;;;;;;;;;;;;;;;;;;5096464;28;19911;-27
2022/11/15 17:18:30;;;;;;;;;;;;;;;;;;5096367;28;19912;-23
2022/11/15 17:20:56;;;;;;;;;;;;;;;;;;5096233;28;19919;-29
2022/11/15 17:23:22;;;;;;;;;;;;;;;;;;5096098;28;19912;-30